Mansfield Lahm Regional Airport
KMFD : now visible

Airfield :











YOU CAN JOIN US ON...

 
LOGIN :

Register | Disclaimer

   EN    FR    IT 

 









Legend :    VFR   Marginal VFR   IFR   Intensive IFR   Very Intensive IFR
Visi :
Ceiling :
>= 8 km
>= 3000ft
5 to 8 km
1000 to 3000 ft
1500m to 5 km
500 to 1000 ft
800 to 1500m
200 to 500 ft
< 800m
< 200 ft
Symbols :   Thunderstorms  Fog  Heavy snow  Heavy precipitations  Wind > 20 kt






- Airport Elevation : 1297 ft


KMFD - Mansfield Lahm Regional

CURRENT METAR :
  • 101852Z 15018G24KT 10SM CLR 26/09 A2964 RMK AO2 SLP028 T02560089

EXPIRED METARs :
  • 101752Z 15014G20KT 10SM CLR 25/11 A2967 RMK AO2 SLP041 T02500106 10250 20156 58029
  • 101652Z 17011KT 10SM CLR 24/10 A2972 RMK AO2 SLP056 T02390100

TAF KMFD
Valid from the 10 at 19:00 until the 11 at 18:00 UTC


101858Z 1019/1118 15010G20KT P6SM BKN250
FM102300 16015G25KT 4SM -SHRA BR OVC035
TEMPO 1023/1024 2SM TSRA BR OVC015CB
FM110000 16012KT 2SM -SHRA BR OVC015
TEMPO 1100/1103 1SM TSRA BR OVC005CB
FM110500 19011KT P6SM OVC020
FM110900 21012KT P6SM SCT035
FM111600 19010G20KT P6SM BKN020
KZOB FIR / North America



MET'MAP, your aeronautical weather chart ! - Copyright ORBIFLY December 2007 - Disclaimer

ORBIFLY MET'MAP TEAM :

Programming & Development : Alexandra Zaïnal
Concept & original design : Baudouin d'Aumeries
Assistance for programming : Marc-Olivier Méhu
Technical & hardware support : Manuel Goepfert

Contact : metmap@orbifly.com




SOURCES & CREDITS :

   NOAA       Earth
Advisory